Time;durP1;ratioP1;P1;durP2;ratioP2;P2;SDS_P1;SDS_P2;PMS_P1;PMS_P2;Temp;Humidity;BMP_temperature;BMP_pressure;BME280_temperature;BME280_humidity;BME280_pressure;Samples;Min_cycle;Max_cycle;Signal;HPM_P1;HPM_P2
2021/01/27 00:00:21;;;;;;;4.27;3.87;;;;;;;;;;5108578;28;20516;-58
2021/01/27 00:02:47;;;;;;;7.43;4.43;;;;;;;;;;5086357;28;20410;-59
2021/01/27 00:05:15;;;;;;;7.70;4.30;;;;;;;;;;5105954;28;20816;-59
2021/01/27 00:07:41;;;;;;;4.20;3.67;;;;;;;;;;5110964;28;20458;-59
2021/01/27 00:10:08;;;;;;;5.57;4.03;;;;;;;;;;5104174;28;20413;-59
2021/01/27 00:12:34;;;;;;;5.63;4.00;;;;;;;;;;5093477;28;20748;-59
2021/01/27 00:15:01;;;;;;;6.73;4.30;;;;;;;;;;5089533;28;20432;-59
2021/01/27 00:17:28;;;;;;;5.20;4.03;;;;;;;;;;5110554;28;20400;-59
2021/01/27 00:19:54;;;;;;;5.60;4.20;;;;;;;;;;5108353;28;20413;-58
2021/01/27 00:22:20;;;;;;;5.03;4.13;;;;;;;;;;5089564;28;20480;-59
2021/01/27 00:24:46;;;;;;;7.03;3.87;;;;;;;;;;5073986;28;20422;-59
2021/01/27 00:27:12;;;;;;;4.73;4.07;;;;;;;;;;5089814;28;20495;-59
2021/01/27 00:29:39;;;;;;;4.73;3.90;;;;;;;;;;5090708;28;20421;-59
2021/01/27 00:32:05;;;;;;;3.97;3.57;;;;;;;;;;5102482;28;20409;-59
2021/01/27 00:34:34;;;;;;;5.90;3.90;;;;;;;;;;5086873;28;20417;-60
2021/01/27 00:37:00;;;;;;;5.13;3.67;;;;;;;;;;5091591;28;20998;-59
2021/01/27 00:39:27;;;;;;;4.60;3.77;;;;;;;;;;5084385;28;20413;-59
2021/01/27 00:41:53;;;;;;;5.20;4.10;;;;;;;;;;5093805;28;20452;-60
2021/01/27 00:44:19;;;;;;;5.83;3.63;;;;;;;;;;5080372;28;20451;-59
2021/01/27 00:46:45;;;;;;;4.40;3.57;;;;;;;;;;5078483;28;20465;-60
2021/01/27 00:49:12;;;;;;;4.27;3.77;;;;;;;;;;5101398;28;20520;-59
2021/01/27 00:51:38;;;;;;;4.40;3.63;;;;;;;;;;5091410;28;20493;-59
2021/01/27 00:54:04;;;;;;;3.77;3.40;;;;;;;;;;5104164;28;20816;-59
2021/01/27 00:56:30;;;;;;;7.17;4.00;;;;;;;;;;5096933;28;20425;-59
2021/01/27 00:58:57;;;;;;;7.40;3.40;;;;;;;;;;5103529;28;20444;-59
2021/01/27 01:01:23;;;;;;;3.87;3.30;;;;;;;;;;5089801;28;20589;-59
2021/01/27 01:03:49;;;;;;;5.53;3.73;;;;;;;;;;5093287;28;20634;-60
2021/01/27 01:06:15;;;;;;;6.23;3.77;;;;;;;;;;5095916;28;20528;-58
2021/01/27 01:08:42;;;;;;;5.70;3.73;;;;;;;;;;5076294;28;20462;-58
2021/01/27 01:11:08;;;;;;;4.97;3.70;;;;;;;;;;5090410;28;20410;-59
2021/01/27 01:13:35;;;;;;;4.97;3.83;;;;;;;;;;5090989;28;20825;-59
2021/01/27 01:16:01;;;;;;;4.80;3.97;;;;;;;;;;5106753;28;20412;-58
2021/01/27 01:18:27;;;;;;;4.20;3.80;;;;;;;;;;5108269;28;20413;-59
2021/01/27 01:20:54;;;;;;;4.90;3.90;;;;;;;;;;5100101;28;20413;-59
2021/01/27 01:23:21;;;;;;;5.20;4.30;;;;;;;;;;5075753;28;20474;-59
2021/01/27 01:25:48;;;;;;;4.23;3.83;;;;;;;;;;5089219;28;20456;-59
2021/01/27 01:28:14;;;;;;;3.47;3.10;;;;;;;;;;5088732;28;20410;-59
2021/01/27 01:30:42;;;;;;;7.27;4.40;;;;;;;;;;5106447;28;20831;-59
2021/01/27 01:33:10;;;;;;;4.83;3.80;;;;;;;;;;5090890;28;20420;-59
2021/01/27 01:35:37;;;;;;;5.63;4.03;;;;;;;;;;5105558;28;20526;-60
2021/01/27 01:38:04;;;;;;;4.37;3.97;;;;;;;;;;5109341;28;20417;-59
2021/01/27 01:40:33;;;;;;;4.67;4.00;;;;;;;;;;5073126;28;20429;-59
2021/01/27 01:43:03;;;;;;;3.80;3.40;;;;;;;;;;5092828;28;20425;-59
2021/01/27 01:45:34;;;;;;;6.63;4.27;;;;;;;;;;5106006;28;20758;-59
2021/01/27 01:48:03;;;;;;;6.50;4.20;;;;;;;;;;5109443;28;20488;-59
2021/01/27 01:50:30;;;;;;;5.80;4.20;;;;;;;;;;5087324;28;20965;-59
2021/01/27 01:52:57;;;;;;;4.33;3.63;;;;;;;;;;5109072;28;20428;-61
2021/01/27 01:55:24;;;;;;;4.53;4.13;;;;;;;;;;5103771;28;20428;-59
2021/01/27 01:57:52;;;;;;;5.47;4.40;;;;;;;;;;5089907;28;20187;-59
2021/01/27 02:00:20;;;;;;;5.57;4.27;;;;;;;;;;5092421;28;20448;-59
2021/01/27 02:02:46;;;;;;;5.40;4.00;;;;;;;;;;5106564;28;20815;-60
2021/01/27 02:05:15;;;;;;;6.30;4.40;;;;;;;;;;5098065;28;20581;-59
2021/01/27 02:07:41;;;;;;;7.97;3.83;;;;;;;;;;5082700;28;20542;-59
2021/01/27 02:10:08;;;;;;;4.63;4.13;;;;;;;;;;5100367;28;20929;-59
2021/01/27 02:12:41;;;;;;;3.80;3.40;;;;;;;;;;5074079;28;20418;-59
2021/01/27 02:15:19;;;;;;;4.80;3.70;;;;;;;;;;5093562;28;20410;-58
2021/01/27 02:17:51;;;;;;;4.67;3.77;;;;;;;;;;5103597;28;20419;-59
2021/01/27 02:20:50;;;;;;;4.20;3.83;;;;;;;;;;5108170;28;20911;-60
2021/01/27 02:23:34;;;;;;;4.47;3.30;;;;;;;;;;5046935;28;20421;-60
2021/01/27 02:26:16;;;;;;;3.97;3.30;;;;;;;;;;5088829;28;20452;-59
2021/01/27 02:28:48;;;;;;;4.60;3.33;;;;;;;;;;5108822;28;20424;-58
2021/01/27 02:31:37;;;;;;;3.83;3.07;;;;;;;;;;5104656;28;20420;-59
2021/01/27 02:34:10;;;;;;;3.67;3.37;;;;;;;;;;5070997;28;20943;-59
2021/01/27 02:36:58;;;;;;;3.77;3.00;;;;;;;;;;5111866;28;20512;-59
2021/01/27 02:39:27;;;;;;;4.00;3.20;;;;;;;;;;5099462;28;20436;-58
2021/01/27 02:42:08;;;;;;;4.77;3.07;;;;;;;;;;5095902;28;20486;-59
2021/01/27 02:44:43;;;;;;;4.33;3.10;;;;;;;;;;5086631;28;20412;-58
2021/01/27 02:47:18;;;;;;;3.67;2.47;;;;;;;;;;5106213;28;20461;-59
2021/01/27 02:49:49;;;;;;;2.90;2.57;;;;;;;;;;5109410;28;20413;-58
2021/01/27 02:52:24;;;;;;;2.93;2.63;;;;;;;;;;5108936;28;20397;-59
2021/01/27 02:55:02;;;;;;;3.73;2.90;;;;;;;;;;5098887;28;20760;-58
2021/01/27 02:57:36;;;;;;;3.60;3.13;;;;;;;;;;5090392;28;20409;-58
2021/01/27 03:00:12;;;;;;;3.20;2.90;;;;;;;;;;5104705;28;20425;-59
2021/01/27 03:02:44;;;;;;;3.70;2.63;;;;;;;;;;5099765;28;20410;-59
2021/01/27 03:05:17;;;;;;;2.70;2.30;;;;;;;;;;5069174;28;20535;-59
2021/01/27 03:07:45;;;;;;;2.47;2.23;;;;;;;;;;5090592;28;21010;-59
2021/01/27 03:10:16;;;;;;;4.17;2.60;;;;;;;;;;5086396;28;20406;-59
2021/01/27 03:12:42;;;;;;;3.20;2.90;;;;;;;;;;5082056;28;20417;-59
2021/01/27 03:15:10;;;;;;;2.57;2.37;;;;;;;;;;5074596;28;20526;-59
2021/01/27 03:17:36;;;;;;;2.30;2.10;;;;;;;;;;5083009;28;20640;-59
2021/01/27 03:20:16;;;;;;;2.53;2.33;;;;;;;;;;5076300;28;20521;-58
2021/01/27 03:22:42;;;;;;;2.97;2.37;;;;;;;;;;5072120;28;20453;-58
2021/01/27 03:25:08;;;;;;;3.90;2.20;;;;;;;;;;5083965;28;20429;-60
2021/01/27 03:27:40;;;;;;;3.30;2.37;;;;;;;;;;5089837;28;20172;-59
2021/01/27 03:30:08;;;;;;;2.63;1.97;;;;;;;;;;5087278;28;20484;-58
2021/01/27 03:32:34;;;;;;;2.63;1.97;;;;;;;;;;5071344;28;20479;-59
2021/01/27 03:35:11;;;;;;;2.60;2.10;;;;;;;;;;5080594;28;20528;-58
2021/01/27 03:37:42;;;;;;;4.67;2.20;;;;;;;;;;5088303;28;20604;-59
2021/01/27 03:40:11;;;;;;;2.43;2.23;;;;;;;;;;5068312;28;20529;-59
2021/01/27 03:42:57;;;;;;;2.57;2.10;;;;;;;;;;5074396;28;20410;-58
2021/01/27 03:45:25;;;;;;;2.07;1.77;;;;;;;;;;5072356;28;20972;-61
2021/01/27 03:48:11;;;;;;;3.70;2.33;;;;;;;;;;5071285;28;20894;-59
2021/01/27 03:50:38;;;;;;;3.77;2.10;;;;;;;;;;5088375;28;20449;-58
2021/01/27 03:53:06;;;;;;;2.10;1.60;;;;;;;;;;5089930;28;20600;-59
2021/01/27 03:55:38;;;;;;;2.97;1.97;;;;;;;;;;5083584;28;20479;-59
2021/01/27 03:58:07;;;;;;;2.03;1.70;;;;;;;;;;5089653;28;20410;-59
2021/01/27 04:00:34;;;;;;;1.83;1.70;;;;;;;;;;5071819;28;20527;-59
2021/01/27 04:03:16;;;;;;;1.90;1.70;;;;;;;;;;5069754;28;20498;-59
2021/01/27 04:05:42;;;;;;;2.23;1.70;;;;;;;;;;5072670;28;20458;-58
2021/01/27 04:08:08;;;;;;;1.53;1.40;;;;;;;;;;5069400;28;20981;-59
2021/01/27 04:10:34;;;;;;;1.77;1.30;;;;;;;;;;5066789;28;20415;-59
2021/01/27 04:13:00;;;;;;;3.57;2.07;;;;;;;;;;5060873;28;20435;-58
2021/01/27 04:15:27;;;;;;;3.20;1.70;;;;;;;;;;5082970;28;20473;-58
2021/01/27 04:17:53;;;;;;;2.80;1.70;;;;;;;;;;5089324;28;20176;-59
2021/01/27 04:20:19;;;;;;;3.30;1.73;;;;;;;;;;5069995;28;20430;-59
2021/01/27 04:22:45;;;;;;;3.13;1.63;;;;;;;;;;5068556;28;20878;-59
2021/01/27 04:25:12;;;;;;;1.93;1.73;;;;;;;;;;5080356;28;20563;-58
2021/01/27 04:27:38;;;;;;;2.43;1.93;;;;;;;;;;5089464;28;20422;-59
2021/01/27 04:30:08;;;;;;;2.20;1.70;;;;;;;;;;5087197;28;20429;-59
2021/01/27 04:32:34;;;;;;;2.27;1.40;;;;;;;;;;5069567;28;20403;-59
2021/01/27 04:35:00;;;;;;;1.87;1.70;;;;;;;;;;5080202;28;20410;-59
2021/01/27 04:37:26;;;;;;;2.03;1.83;;;;;;;;;;5071431;28;20969;-58
2021/01/27 04:39:52;;;;;;;2.00;1.33;;;;;;;;;;5087444;28;20417;-59
2021/01/27 04:42:21;;;;;;;1.80;1.70;;;;;;;;;;5070174;28;20622;-59
2021/01/27 04:44:48;;;;;;;2.03;1.43;;;;;;;;;;5078966;28;20474;-59
2021/01/27 04:47:16;;;;;;;2.00;1.63;;;;;;;;;;5068743;28;20446;-62
2021/01/27 04:49:52;;;;;;;1.93;1.47;;;;;;;;;;5059909;28;20471;-59
2021/01/27 04:52:44;;;;;;;1.87;1.70;;;;;;;;;;5049755;28;20785;-59
2021/01/27 04:55:13;;;;;;;1.60;1.40;;;;;;;;;;5067969;28;20460;-59
2021/01/27 04:57:54;;;;;;;4.10;2.07;;;;;;;;;;5068935;28;20446;-60
2021/01/27 05:00:23;;;;;;;2.70;1.47;;;;;;;;;;5078010;28;20422;-58
2021/01/27 05:02:53;;;;;;;2.03;1.63;;;;;;;;;;5051568;28;20908;-58
2021/01/27 05:05:24;;;;;;;2.30;1.90;;;;;;;;;;5099564;28;20472;-60
2021/01/27 05:07:57;;;;;;;2.00;1.70;;;;;;;;;;5090854;28;20496;-59
2021/01/27 05:10:26;;;;;;;2.43;1.70;;;;;;;;;;5088103;28;20406;-59
2021/01/27 05:13:08;;;;;;;3.33;2.20;;;;;;;;;;5096046;28;20436;-58
2021/01/27 05:15:34;;;;;;;2.97;2.23;;;;;;;;;;5089225;28;20433;-59
2021/01/27 05:18:00;;;;;;;2.20;1.83;;;;;;;;;;5104375;28;20442;-59
2021/01/27 05:20:26;;;;;;;3.33;1.77;;;;;;;;;;5097257;28;20421;-58
2021/01/27 05:22:53;;;;;;;2.10;1.70;;;;;;;;;;5100492;28;20493;-59
2021/01/27 05:25:28;;;;;;;2.57;1.73;;;;;;;;;;5100554;28;20465;-59
2021/01/27 05:27:56;;;;;;;2.47;2.10;;;;;;;;;;5099141;28;20466;-59
2021/01/27 05:30:29;;;;;;;3.60;2.80;;;;;;;;;;5089061;28;20457;-59
2021/01/27 05:32:56;;;;;;;2.23;1.80;;;;;;;;;;5071188;28;20425;-59
2021/01/27 05:35:26;;;;;;;5.47;2.73;;;;;;;;;;5094006;28;21024;-59
2021/01/27 05:37:52;;;;;;;3.30;2.43;;;;;;;;;;5095173;28;20440;-59
2021/01/27 05:40:35;;;;;;;3.90;2.33;;;;;;;;;;5095012;28;20429;-60
2021/01/27 05:43:15;;;;;;;3.33;2.23;;;;;;;;;;5106462;28;20957;-59
2021/01/27 05:45:43;;;;;;;2.53;2.30;;;;;;;;;;5111441;27;20456;-59
2021/01/27 05:48:12;;;;;;;2.87;2.47;;;;;;;;;;5111008;28;21004;-59
2021/01/27 05:50:39;;;;;;;4.03;2.63;;;;;;;;;;5112226;28;20539;-60
2021/01/27 05:53:11;;;;;;;2.70;2.50;;;;;;;;;;5113093;28;20411;-59
2021/01/27 05:55:38;;;;;;;4.17;2.43;;;;;;;;;;5112078;28;20890;-59
2021/01/27 05:58:05;;;;;;;3.60;2.50;;;;;;;;;;5112146;28;20427;-59
2021/01/27 06:00:31;;;;;;;2.60;2.40;;;;;;;;;;5110648;28;20432;-58
2021/01/27 06:02:59;;;;;;;3.63;2.53;;;;;;;;;;5094502;28;20425;-59
2021/01/27 06:05:36;;;;;;;3.63;2.53;;;;;;;;;;5110583;28;20545;-59
2021/01/27 06:08:16;;;;;;;4.73;2.77;;;;;;;;;;5101088;28;20947;-59
2021/01/27 06:10:43;;;;;;;3.30;2.70;;;;;;;;;;5092380;28;20481;-59
2021/01/27 06:13:26;;;;;;;3.30;2.50;;;;;;;;;;5108494;28;20421;-59
2021/01/27 06:15:52;;;;;;;2.60;2.27;;;;;;;;;;5098068;28;20485;-58
2021/01/27 06:18:20;;;;;;;2.93;2.27;;;;;;;;;;5094261;28;20417;-60
2021/01/27 06:20:46;;;;;;;3.90;2.37;;;;;;;;;;5112045;28;20412;-59
2021/01/27 06:23:24;;;;;;;2.97;2.50;;;;;;;;;;5112502;28;20431;-58
2021/01/27 06:26:13;;;;;;;2.33;2.03;;;;;;;;;;5111538;28;20548;-61
2021/01/27 06:28:58;;;;;;;2.90;2.33;;;;;;;;;;5091146;28;20440;-59
2021/01/27 06:31:51;;;;;;;4.10;2.40;;;;;;;;;;5112905;28;20393;-59
2021/01/27 06:34:27;;;;;;;2.23;2.03;;;;;;;;;;5111427;28;20832;-59
2021/01/27 06:37:10;;;;;;;2.03;1.70;;;;;;;;;;5094046;28;20397;-59
2021/01/27 06:39:42;;;;;;;2.37;2.10;;;;;;;;;;5111938;28;20413;-58
2021/01/27 06:42:08;;;;;;;2.00;1.73;;;;;;;;;;5111379;28;20458;-58
2021/01/27 06:44:40;;;;;;;3.77;2.63;;;;;;;;;;5109273;28;20417;-58
2021/01/27 06:47:24;;;;;;;2.60;2.20;;;;;;;;;;5111821;28;20449;-59
2021/01/27 06:49:50;;;;;;;3.77;2.20;;;;;;;;;;5102344;28;20441;-61
2021/01/27 06:52:20;;;;;;;2.93;2.33;;;;;;;;;;5096160;28;20421;-59
2021/01/27 06:54:52;;;;;;;3.77;2.50;;;;;;;;;;5091455;28;20720;-59
2021/01/27 06:57:19;;;;;;;3.43;2.80;;;;;;;;;;5072863;28;20432;-59
2021/01/27 07:00:05;;;;;;;3.33;2.30;;;;;;;;;;5083290;28;20425;-59
2021/01/27 07:02:46;;;;;;;3.10;2.43;;;;;;;;;;5112149;28;20404;-59
2021/01/27 07:05:24;;;;;;;2.70;2.50;;;;;;;;;;5110904;28;20472;-59
2021/01/27 07:07:58;;;;;;;4.30;2.40;;;;;;;;;;5111639;28;20405;-60
2021/01/27 07:10:24;;;;;;;4.47;2.43;;;;;;;;;;5111551;28;20405;-59
2021/01/27 07:12:56;;;;;;;2.47;2.27;;;;;;;;;;5093295;28;20404;-60
2021/01/27 07:15:25;;;;;;;2.80;2.60;;;;;;;;;;5094576;28;20438;-59
2021/01/27 07:18:10;;;;;;;3.43;3.03;;;;;;;;;;5091184;28;20414;-59
2021/01/27 07:20:46;;;;;;;3.20;2.70;;;;;;;;;;5090633;28;20960;-59
2021/01/27 07:23:16;;;;;;;3.50;2.70;;;;;;;;;;5084906;28;20413;-59
2021/01/27 07:25:50;;;;;;;4.73;3.23;;;;;;;;;;5092923;28;20445;-59
2021/01/27 07:28:19;;;;;;;3.20;2.90;;;;;;;;;;5092573;28;20405;-60
2021/01/27 07:30:59;;;;;;;3.10;2.80;;;;;;;;;;5102020;28;20875;-61
2021/01/27 07:33:35;;;;;;;3.93;3.53;;;;;;;;;;5110953;28;20409;-58
2021/01/27 07:36:27;;;;;;;4.33;3.93;;;;;;;;;;5111062;28;20423;-58
2021/01/27 07:38:56;;;;;;;3.63;3.17;;;;;;;;;;5063021;28;20525;-57
2021/01/27 07:41:26;;;;;;;6.50;4.17;;;;;;;;;;5092042;28;20413;-58
2021/01/27 07:44:04;;;;;;;4.83;4.23;;;;;;;;;;5105688;28;20414;-58
2021/01/27 07:46:40;;;;;;;5.63;4.33;;;;;;;;;;5072345;28;20570;-58
2021/01/27 07:49:07;;;;;;;5.43;4.87;;;;;;;;;;5090149;28;20830;-59
2021/01/27 07:51:48;;;;;;;5.27;4.47;;;;;;;;;;5090617;28;20464;-57
2021/01/27 07:54:24;;;;;;;4.70;4.20;;;;;;;;;;5090877;28;20461;-60
2021/01/27 07:57:10;;;;;;;4.37;3.90;;;;;;;;;;5090182;28;20413;-58
2021/01/27 07:59:48;;;;;;;4.17;3.77;;;;;;;;;;5082103;28;20936;-57
2021/01/27 08:02:23;;;;;;;4.23;3.90;;;;;;;;;;5090850;28;20393;-57
2021/01/27 08:04:57;;;;;;;4.50;4.10;;;;;;;;;;5080296;28;21048;-57
2021/01/27 08:07:37;;;;;;;5.37;4.50;;;;;;;;;;5110939;28;20816;-57
2021/01/27 08:10:17;;;;;;;5.57;4.70;;;;;;;;;;5110039;28;20927;-57
2021/01/27 08:12:59;;;;;;;4.57;3.73;;;;;;;;;;5091820;28;20500;-59
2021/01/27 08:15:25;;;;;;;5.17;4.37;;;;;;;;;;5109637;28;20786;-57
2021/01/27 08:17:54;;;;;;;5.50;4.30;;;;;;;;;;5092312;28;20498;-57
2021/01/27 08:20:28;;;;;;;5.80;4.27;;;;;;;;;;5109121;28;20575;-59
2021/01/27 08:22:56;;;;;;;5.13;4.63;;;;;;;;;;5106936;28;20841;-58
2021/01/27 08:25:40;;;;;;;3.93;3.63;;;;;;;;;;5109361;28;20456;-59
2021/01/27 08:28:22;;;;;;;4.27;3.87;;;;;;;;;;5110023;28;20435;-59
2021/01/27 08:31:07;;;;;;;4.80;4.40;;;;;;;;;;5105437;28;20409;-58
2021/01/27 08:33:41;;;;;;;5.47;4.20;;;;;;;;;;5087911;28;20431;-58
2021/01/27 08:36:08;;;;;;;4.47;4.07;;;;;;;;;;5091286;28;20424;-58
2021/01/27 08:38:35;;;;;;;5.27;4.50;;;;;;;;;;5091498;28;20415;-58
2021/01/27 08:41:02;;;;;;;6.10;5.20;;;;;;;;;;5110756;28;20450;-59
2021/01/27 08:43:40;;;;;;;8.73;4.83;;;;;;;;;;5103955;28;20417;-58
2021/01/27 08:46:26;;;;;;;6.23;5.37;;;;;;;;;;5090174;28;21026;-58
2021/01/27 08:48:53;;;;;;;5.13;4.63;;;;;;;;;;5108930;28;20421;-59
2021/01/27 08:51:38;;;;;;;5.47;4.97;;;;;;;;;;5109826;28;20413;-59
2021/01/27 08:54:21;;;;;;;6.10;5.50;;;;;;;;;;5110038;28;20479;-58
2021/01/27 08:57:05;;;;;;;5.77;5.07;;;;;;;;;;5089541;28;20880;-59
2021/01/27 08:59:32;;;;;;;6.13;5.40;;;;;;;;;;5090710;28;20418;-61
2021/01/27 09:02:00;;;;;;;5.73;5.13;;;;;;;;;;5089448;28;20406;-59
2021/01/27 09:04:37;;;;;;;7.17;5.70;;;;;;;;;;5101806;28;20509;-58
2021/01/27 09:07:07;;;;;;;6.00;5.40;;;;;;;;;;5079731;28;20899;-58
2021/01/27 09:09:38;;;;;;;6.77;6.07;;;;;;;;;;5096236;28;20436;-60
2021/01/27 09:12:07;;;;;;;8.23;5.73;;;;;;;;;;5097811;28;20406;-59
2021/01/27 09:14:34;;;;;;;5.97;5.37;;;;;;;;;;5109583;28;20435;-60
2021/01/27 09:17:01;;;;;;;6.17;5.57;;;;;;;;;;5078638;28;20444;-59
2021/01/27 09:19:31;;;;;;;7.33;6.17;;;;;;;;;;5107850;28;20429;-59
2021/01/27 09:22:00;;;;;;;6.43;5.80;;;;;;;;;;5104657;28;20421;-60
2021/01/27 09:24:32;;;;;;;7.03;5.40;;;;;;;;;;5076901;28;20424;-58
2021/01/27 09:26:59;;;;;;;6.90;6.20;;;;;;;;;;5099774;28;20546;-58
2021/01/27 09:29:26;;;;;;;6.30;5.70;;;;;;;;;;5099611;28;20784;-59
2021/01/27 09:31:53;;;;;;;6.87;5.67;;;;;;;;;;5109411;28;20760;-58
2021/01/27 09:34:26;;;;;;;6.57;5.97;;;;;;;;;;5089148;28;20921;-58
2021/01/27 09:36:59;;;;;;;6.77;6.10;;;;;;;;;;5108945;28;20913;-59
2021/01/27 09:39:30;;;;;;;6.53;5.83;;;;;;;;;;5109101;28;20408;-58
2021/01/27 09:41:58;;;;;;;9.17;5.60;;;;;;;;;;5099678;28;20786;-58
2021/01/27 09:44:33;;;;;;;5.30;4.80;;;;;;;;;;5097159;28;20757;-59
2021/01/27 09:47:05;;;;;;;5.57;5.03;;;;;;;;;;5094103;28;20527;-58
2021/01/27 09:49:32;;;;;;;7.57;5.20;;;;;;;;;;5096924;28;20458;-58
2021/01/27 09:52:02;;;;;;;6.50;5.03;;;;;;;;;;5090624;28;20503;-59
2021/01/27 09:54:28;;;;;;;6.00;5.23;;;;;;;;;;5089411;28;20398;-59
2021/01/27 09:56:59;;;;;;;6.00;5.03;;;;;;;;;;5070809;28;20467;-59
2021/01/27 09:59:26;;;;;;;5.70;5.20;;;;;;;;;;5084917;28;20405;-59
2021/01/27 10:01:52;;;;;;;5.60;5.00;;;;;;;;;;5102269;28;20425;-59
2021/01/27 10:04:30;;;;;;;6.27;4.77;;;;;;;;;;5108674;28;20551;-59
2021/01/27 10:07:05;;;;;;;5.37;4.83;;;;;;;;;;5108681;28;20963;-59
2021/01/27 10:09:39;;;;;;;5.67;4.53;;;;;;;;;;5109783;28;20829;-60
2021/01/27 10:12:07;;;;;;;4.30;3.90;;;;;;;;;;5109263;28;20377;-58
2021/01/27 10:14:35;;;;;;;5.30;4.80;;;;;;;;;;5090847;28;20998;-59
2021/01/27 10:17:02;;;;;;;5.20;4.70;;;;;;;;;;5109937;28;20482;-59
2021/01/27 10:19:30;;;;;;;5.00;4.47;;;;;;;;;;5110471;28;20488;-59
2021/01/27 10:21:58;;;;;;;6.67;4.27;;;;;;;;;;5113807;28;20416;-59
2021/01/27 10:24:43;;;;;;;6.00;4.00;;;;;;;;;;5114538;28;20407;-59
2021/01/27 10:27:09;;;;;;;4.47;3.77;;;;;;;;;;5088977;28;20533;-60
2021/01/27 10:29:38;;;;;;;4.60;4.20;;;;;;;;;;5086139;28;20421;-59
2021/01/27 10:32:21;;;;;;;4.80;3.50;;;;;;;;;;5090934;28;20449;-59
2021/01/27 10:34:50;;;;;;;4.93;4.17;;;;;;;;;;5074405;28;20843;-61
2021/01/27 10:37:35;;;;;;;4.13;3.73;;;;;;;;;;5093204;28;20402;-59
2021/01/27 10:40:08;;;;;;;4.53;3.93;;;;;;;;;;5092906;28;20441;-60
2021/01/27 10:42:39;;;;;;;4.77;3.67;;;;;;;;;;5093826;28;20679;-59
2021/01/27 10:45:15;;;;;;;4.23;3.70;;;;;;;;;;5111687;28;20500;-59
2021/01/27 10:47:41;;;;;;;4.17;3.13;;;;;;;;;;5109256;28;20428;-59
2021/01/27 10:50:09;;;;;;;3.70;3.33;;;;;;;;;;5108964;28;20417;-59
2021/01/27 10:52:35;;;;;;;3.83;3.47;;;;;;;;;;5111267;28;20440;-60
2021/01/27 10:55:02;;;;;;;5.70;3.30;;;;;;;;;;5086885;28;20563;-59
2021/01/27 10:57:29;;;;;;;5.10;3.50;;;;;;;;;;5092560;28;20426;-59
2021/01/27 10:59:56;;;;;;;3.70;3.23;;;;;;;;;;5098513;28;20422;-59
2021/01/27 11:02:22;;;;;;;3.63;3.33;;;;;;;;;;5107955;28;20512;-59
2021/01/27 11:04:49;;;;;;;3.30;3.00;;;;;;;;;;5093402;28;20544;-60
2021/01/27 11:07:16;;;;;;;3.53;3.23;;;;;;;;;;5094254;28;20460;-59
2021/01/27 11:09:42;;;;;;;3.10;2.80;;;;;;;;;;5110085;28;20793;-59
2021/01/27 11:12:08;;;;;;;3.70;3.30;;;;;;;;;;5111387;28;20425;-60
2021/01/27 11:14:37;;;;;;;3.57;3.00;;;;;;;;;;5097892;28;20904;-60
2021/01/27 11:17:03;;;;;;;3.13;2.90;;;;;;;;;;5092398;28;20398;-59
2021/01/27 11:19:29;;;;;;;3.90;2.83;;;;;;;;;;5082452;28;20409;-61
2021/01/27 11:21:55;;;;;;;3.50;2.80;;;;;;;;;;5112324;28;20419;-59
2021/01/27 11:24:22;;;;;;;4.00;2.80;;;;;;;;;;5092439;28;20417;-59
2021/01/27 11:26:48;;;;;;;3.57;3.27;;;;;;;;;;5094252;28;20461;-59
2021/01/27 11:29:14;;;;;;;3.93;3.00;;;;;;;;;;5104640;28;20468;-59
2021/01/27 11:31:40;;;;;;;3.10;2.80;;;;;;;;;;5073584;28;21022;-59
2021/01/27 11:34:07;;;;;;;3.10;2.73;;;;;;;;;;5104265;28;20504;-59
2021/01/27 11:36:33;;;;;;;2.90;2.70;;;;;;;;;;5092820;28;20459;-59
2021/01/27 11:38:59;;;;;;;3.70;2.70;;;;;;;;;;5111258;28;20474;-59
2021/01/27 11:41:26;;;;;;;3.40;2.43;;;;;;;;;;5092893;28;20771;-59
2021/01/27 11:43:52;;;;;;;4.33;3.80;;;;;;;;;;5109504;28;20785;-59
2021/01/27 11:46:20;;;;;;;2.93;2.67;;;;;;;;;;5109931;28;20932;-61
2021/01/27 11:48:47;;;;;;;4.40;2.90;;;;;;;;;;5092003;28;20532;-59
2021/01/27 11:51:14;;;;;;;3.43;2.77;;;;;;;;;;5110906;28;20741;-59
2021/01/27 11:53:40;;;;;;;3.77;2.70;;;;;;;;;;5092263;28;20417;-59
2021/01/27 11:56:08;;;;;;;2.60;2.40;;;;;;;;;;5091456;28;20903;-59
2021/01/27 11:58:34;;;;;;;2.77;2.57;;;;;;;;;;5109953;28;20405;-61
2021/01/27 12:01:00;;;;;;;3.03;2.73;;;;;;;;;;5087112;28;20418;-59
2021/01/27 12:03:29;;;;;;;3.03;2.57;;;;;;;;;;5090397;28;20405;-59
2021/01/27 12:05:55;;;;;;;2.43;2.23;;;;;;;;;;5090452;28;20479;-59
2021/01/27 12:08:22;;;;;;;3.93;2.33;;;;;;;;;;5101248;28;20864;-60
2021/01/27 12:10:48;;;;;;;3.17;2.10;;;;;;;;;;5103828;28;20424;-59
2021/01/27 12:13:15;;;;;;;2.13;1.93;;;;;;;;;;5110503;28;20405;-59
2021/01/27 12:15:44;;;;;;;2.47;2.27;;;;;;;;;;5091567;28;20421;-59
2021/01/27 12:18:14;;;;;;;3.77;2.60;;;;;;;;;;5109178;28;20424;-60
2021/01/27 12:20:42;;;;;;;4.33;2.43;;;;;;;;;;5092463;28;20413;-59
2021/01/27 12:23:08;;;;;;;3.60;2.43;;;;;;;;;;5110775;28;20461;-59
2021/01/27 12:25:35;;;;;;;3.93;2.43;;;;;;;;;;5091184;28;20425;-62
2021/01/27 12:28:01;;;;;;;4.30;2.37;;;;;;;;;;5107174;28;20425;-59
2021/01/27 12:30:27;;;;;;;2.60;2.40;;;;;;;;;;5086853;28;20516;-59
2021/01/27 12:32:57;;;;;;;4.43;2.50;;;;;;;;;;5107956;28;20429;-59
2021/01/27 12:35:23;;;;;;;6.07;2.90;;;;;;;;;;5104068;28;20456;-59
2021/01/27 12:37:50;;;;;;;3.67;2.60;;;;;;;;;;5106601;28;20456;-61
2021/01/27 12:40:17;;;;;;;4.60;2.60;;;;;;;;;;5110273;28;20397;-59
2021/01/27 12:42:43;;;;;;;2.50;2.30;;;;;;;;;;5102255;28;20421;-59
2021/01/27 12:45:11;;;;;;;2.40;2.20;;;;;;;;;;5108247;28;20512;-59
2021/01/27 12:47:37;;;;;;;3.70;2.40;;;;;;;;;;5105579;28;20965;-59
2021/01/27 12:50:08;;;;;;;5.80;2.77;;;;;;;;;;5108970;28;20398;-59
2021/01/27 12:52:34;;;;;;;3.33;3.03;;;;;;;;;;5093961;27;20434;-59
2021/01/27 12:55:00;;;;;;;3.00;2.70;;;;;;;;;;5070817;28;20430;-59
2021/01/27 12:57:27;;;;;;;4.00;3.03;;;;;;;;;;5080269;28;20550;-59
2021/01/27 12:59:53;;;;;;;3.10;2.40;;;;;;;;;;5075186;28;20437;-59
2021/01/27 13:02:19;;;;;;;3.40;3.10;;;;;;;;;;5108083;28;20402;-59
2021/01/27 13:04:45;;;;;;;3.47;2.93;;;;;;;;;;5066473;28;20505;-59
2021/01/27 13:07:12;;;;;;;5.03;3.30;;;;;;;;;;5065968;28;20501;-59
2021/01/27 13:09:38;;;;;;;3.40;3.10;;;;;;;;;;5076839;28;20449;-59
2021/01/27 13:12:04;;;;;;;4.07;3.70;;;;;;;;;;5077559;28;20468;-59
2021/01/27 13:14:30;;;;;;;3.77;3.33;;;;;;;;;;5072660;28;20438;-60
2021/01/27 13:16:57;;;;;;;3.03;2.70;;;;;;;;;;5069295;28;20917;-59
2021/01/27 13:19:23;;;;;;;4.20;3.77;;;;;;;;;;5075312;28;20767;-59
2021/01/27 13:21:49;;;;;;;3.47;3.17;;;;;;;;;;5072705;28;20429;-59
2021/01/27 13:24:15;;;;;;;7.27;3.13;;;;;;;;;;5071252;28;20541;-59
2021/01/27 13:26:42;;;;;;;3.73;3.10;;;;;;;;;;5086596;28;20471;-59
2021/01/27 13:29:08;;;;;;;3.90;3.43;;;;;;;;;;5086067;28;20422;-59
2021/01/27 13:31:34;;;;;;;4.40;3.73;;;;;;;;;;5085112;28;20434;-59
2021/01/27 13:34:00;;;;;;;3.53;3.10;;;;;;;;;;5086759;28;20433;-59
2021/01/27 13:36:27;;;;;;;4.63;3.47;;;;;;;;;;5082349;28;20433;-59
2021/01/27 13:38:53;;;;;;;5.47;4.43;;;;;;;;;;5085156;28;20491;-59
2021/01/27 13:41:20;;;;;;;4.87;4.37;;;;;;;;;;5074054;28;20480;-59
2021/01/27 13:43:46;;;;;;;5.40;4.00;;;;;;;;;;5067137;28;20821;-59
2021/01/27 13:46:12;;;;;;;6.93;4.13;;;;;;;;;;5083456;28;20487;-59
2021/01/27 13:48:39;;;;;;;5.27;4.77;;;;;;;;;;5086605;28;20410;-59
2021/01/27 13:51:05;;;;;;;5.73;4.73;;;;;;;;;;5087964;28;20410;-59
2021/01/27 13:53:31;;;;;;;6.13;5.37;;;;;;;;;;5069632;28;20489;-59
2021/01/27 13:55:57;;;;;;;6.27;5.67;;;;;;;;;;5082746;28;20895;-59
2021/01/27 13:58:24;;;;;;;6.47;5.60;;;;;;;;;;5087069;28;20972;-60
2021/01/27 14:00:50;;;;;;;9.00;6.80;;;;;;;;;;5084953;28;20453;-60
2021/01/27 14:03:16;;;;;;;8.57;7.33;;;;;;;;;;5087245;28;20452;-61
2021/01/27 14:05:42;;;;;;;9.93;7.80;;;;;;;;;;5094716;28;20479;-60
2021/01/27 14:08:08;;;;;;;8.57;6.90;;;;;;;;;;5081320;28;20479;-60
2021/01/27 14:10:35;;;;;;;7.47;6.67;;;;;;;;;;5088746;28;20421;-60
2021/01/27 14:13:01;;;;;;;8.67;6.70;;;;;;;;;;5105529;28;20420;-60
2021/01/27 14:15:29;;;;;;;7.40;6.67;;;;;;;;;;5107062;28;20860;-60
2021/01/27 14:17:56;;;;;;;9.33;6.60;;;;;;;;;;5105653;28;20420;-61
2021/01/27 14:20:23;;;;;;;8.23;6.33;;;;;;;;;;5103360;28;20419;-60
2021/01/27 14:22:49;;;;;;;6.83;5.90;;;;;;;;;;5102860;28;20417;-61
2021/01/27 14:25:18;;;;;;;8.53;6.73;;;;;;;;;;5105153;28;20417;-60
2021/01/27 14:27:45;;;;;;;8.10;7.20;;;;;;;;;;5095250;28;20496;-58
2021/01/27 14:30:12;;;;;;;9.63;7.80;;;;;;;;;;5087232;28;20413;-59
2021/01/27 14:32:41;;;;;;;8.37;7.20;;;;;;;;;;5106844;28;20807;-59
2021/01/27 14:35:07;;;;;;;8.20;6.13;;;;;;;;;;5102585;28;20412;-59
2021/01/27 14:37:34;;;;;;;7.10;6.40;;;;;;;;;;5092063;28;20406;-59
2021/01/27 14:40:00;;;;;;;8.07;7.20;;;;;;;;;;5109486;28;20897;-59
2021/01/27 14:42:27;;;;;;;9.27;8.23;;;;;;;;;;5109528;28;20498;-59
2021/01/27 14:44:54;;;;;;;10.13;9.03;;;;;;;;;;5090760;28;20417;-59
2021/01/27 14:47:20;;;;;;;9.63;8.00;;;;;;;;;;5106107;28;20453;-59
2021/01/27 14:49:46;;;;;;;13.37;8.57;;;;;;;;;;5084599;28;20867;-60
2021/01/27 14:52:13;;;;;;;11.63;9.00;;;;;;;;;;5104590;28;20421;-60
2021/01/27 14:54:39;;;;;;;9.77;8.63;;;;;;;;;;5110825;28;20842;-60
2021/01/27 14:57:06;;;;;;;10.27;8.70;;;;;;;;;;5105574;28;20417;-60
2021/01/27 14:59:33;;;;;;;10.70;8.50;;;;;;;;;;5096508;28;20433;-59